Queen Victoria — ZCEF3 — position and weather

sailwx.info

Track history (hours):
 
Tides and Currents Weather Stations Pressure Air Temp Water Temp Dewpoint Dewpoint Depression Visibility Wind Speed Wind Dir Waves Ship Positions

Queen Victoria

Last reported at 2017-Oct-17 20:41 UTC. Time now 2017-Oct-18 09:18 UTC.
Position N 41°26' E 018°32'.

Length 294 m; draft 8 m.

Type: Passenger vessel. MMSI: 310624000.

Date/timePositionNaut miles runAvg speedWind from/ knotsBaromVisibWave heightAir tempDewpointWater temp
2017-Oct-17 20:41N 41°26' E 018°32'2 9.5
2017-Oct-17 20:30N 41°24' E 018°33'5 9.4
2017-Oct-17 19:56N 41°19' E 018°34'4 9.4
2017-Oct-17 19:30N 41°15' E 018°36'5 9.4
2017-Oct-17 19:00N 41°11' E 018°38'5 9.4
2017-Oct-17 18:30N 41°06' E 018°40'5 9.4
2017-Oct-17 18:00N 41°02' E 018°42'5 9.4
2017-Oct-17 17:30N 40°57' E 018°44'5 9.4
2017-Oct-17 17:00N 40°53' E 018°45'5 9.4
2017-Oct-17 16:30N 40°48' E 018°47'5 9.4
2017-Oct-17 16:00N 40°44' E 018°50'5 9.4
2017-Oct-17 15:30N 40°40' E 018°53'5 9.4
2017-Oct-17 14:59N 40°36' E 018°55'5 9.4
2017-Oct-17 14:30N 40°31' E 018°58'9 8.6
2017-Oct-17 13:30N 40°23' E 018°58'1121.3
2017-Oct-17 13:00N 40°12' E 019°00'15 6.9 360 / 131023.4 5.4 20.018.421.0
2017-Oct-17 10:46N 39°60' E 019°12'2 9.3
2017-Oct-17 10:30N 39°57' E 019°13'5 9.3
2017-Oct-17 10:00N 39°53' E 019°15'5 9.3
2017-Oct-17 09:30N 39°49' E 019°18'5 9.3
2017-Oct-17 09:00N 39°45' E 019°20'5 9.3
2017-Oct-17 08:30N 39°40' E 019°23'5 9.3
2017-Oct-17 08:00N 39°36' E 019°25'5 9.3
2017-Oct-17 07:30N 39°32' E 019°28'5 9.3
2017-Oct-17 07:00N 39°28' E 019°30'5 9.3
2017-Oct-17 06:30N 39°23' E 019°33'5 9.3
2017-Oct-17 06:00N 39°19' E 019°35'5 9.3
2017-Oct-17 05:30N 39°15' E 019°38'5 9.3
2017-Oct-17 05:00N 39°11' E 019°40'5 9.3
2017-Oct-17 04:30N 39°06' E 019°42'5 9.3
2017-Oct-17 04:00N 39°02' E 019°45'5 9.3
2017-Oct-17 03:30N 38°58' E 019°47'5 9.3
2017-Oct-17 03:00N 38°54' E 019°50'12 9.3
2017-Oct-17 01:40N 38°42' E 019°57'2 9.3
2017-Oct-17 01:30N 38°41' E 019°57'5 9.3
2017-Oct-17 01:00N 38°37' E 019°60'5 9.3
2017-Oct-17 00:30N 38°33' E 020°02'5 9.5
2017-Oct-17 00:01N 38°28' E 020°04'5 9.5
2017-Oct-16 23:30N 38°24' E 020°07'5 9.3
2017-Oct-16 23:00N 38°20' E 020°09'5 9.3
2017-Oct-16 22:30N 38°16' E 020°12'5 9.3
2017-Oct-16 22:00N 38°11' E 020°14'5 9.2
2017-Oct-16 21:30N 38°07' E 020°17'5 9.2
2017-Oct-16 21:00N 38°05' E 020°23'5 9.3
2017-Oct-16 20:31N 38°03' E 020°28'44 9.8
2017-Oct-16 16:00N 37°36' E 021°12'36 2.1 340 / 141024.110.8 23.018.323.0
2017-Oct-15 23:00N 37°00' E 021°18'102 5.7 020 / 111024.110.8 21.011.124.0
2017-Oct-15 05:00N 36°42' E 023°24'51 8.8 010 / 291024.310.8 20.013.023.0
2017-Oct-14 23:11N 37°31' E 023°43'1 8.6
2017-Oct-14 23:01N 37°32' E 023°43'4230.7
2017-Oct-14 23:00N 37°36' E 023°42'1 1.7 020 / 181023.310.8 20.012.024.0
2017-Oct-14 22:30N 37°37' E 023°43'4 8.6
2017-Oct-14 22:01N 37°41' E 023°42'4 8.6
2017-Oct-14 21:30N 37°45' E 023°39'4 8.5
2017-Oct-14 21:00N 37°48' E 023°37'4 8.1
2017-Oct-14 20:31N 37°52' E 023°34'4 8.4
2017-Oct-14 20:01N 37°56' E 023°37'1 1.4
2017-Oct-14 19:29N 37°56' E 023°37'0 0.0
2017-Oct-14 18:59N 37°56' E 023°37'0 0.0
2017-Oct-14 18:29N 37°56' E 023°37'0 0.0
2017-Oct-14 17:59N 37°56' E 023°37'0 0.0
2017-Oct-14 17:29N 37°56' E 023°37'0 0.0
2017-Oct-14 16:59N 37°56' E 023°37'0 0.0
2017-Oct-14 16:29N 37°56' E 023°37'0 0.0
2017-Oct-14 15:59N 37°56' E 023°37'0 0.0
2017-Oct-14 15:29N 37°56' E 023°37'0 0.0
2017-Oct-14 14:56N 37°56' E 023°37'0 0.0
2017-Oct-14 14:29N 37°56' E 023°37'0 0.0
2017-Oct-14 13:59N 37°56' E 023°37'0 0.0
2017-Oct-14 13:29N 37°56' E 023°37'0 0.0
2017-Oct-14 12:59N 37°56' E 023°37'0 0.0
2017-Oct-14 12:29N 37°56' E 023°37'0 0.0
2017-Oct-14 11:59N 37°56' E 023°37'0 0.0
2017-Oct-14 11:29N 37°56' E 023°37'0 0.0
2017-Oct-14 10:59N 37°56' E 023°37'0 0.0
2017-Oct-14 10:29N 37°56' E 023°37'0 0.0
2017-Oct-14 09:59N 37°56' E 023°37'0 0.0
2017-Oct-14 09:29N 37°56' E 023°37'0 0.0
2017-Oct-14 08:59N 37°56' E 023°37'0 0.0
2017-Oct-14 08:29N 37°56' E 023°37'0 0.0
2017-Oct-14 07:59N 37°56' E 023°37'0 0.0
2017-Oct-14 07:29N 37°56' E 023°37'0 0.0
2017-Oct-14 06:59N 37°56' E 023°37'0 0.0
2017-Oct-14 06:29N 37°56' E 023°37'0 0.0
2017-Oct-14 05:59N 37°56' E 023°37'0 0.0
2017-Oct-14 05:29N 37°56' E 023°37'0 0.0
2017-Oct-14 04:59N 37°56' E 023°37'0 0.0
2017-Oct-14 04:29N 37°56' E 023°37'0 0.0
2017-Oct-14 03:59N 37°56' E 023°37'0 0.0
2017-Oct-14 03:29N 37°56' E 023°37'0 0.0
2017-Oct-14 02:59N 37°56' E 023°37'0 0.0
2017-Oct-14 02:29N 37°56' E 023°37'0 0.0
2017-Oct-14 01:59N 37°56' E 023°37'0 0.7
2017-Oct-14 01:30N 37°56' E 023°37'3 6.0
2017-Oct-14 01:01N 37°53' E 023°38'611.6
2017-Oct-14 00:30N 37°48' E 023°41'611.4
2017-Oct-14 00:00N 37°43' E 023°44'611.5
2017-Oct-13 23:31N 37°37' E 023°45'611.7
2017-Oct-13 23:00N 37°31' E 023°45'611.6
2017-Oct-13 22:30N 37°25' E 023°46'48 9.3
2017-Oct-13 17:22N 37°18' E 024°46'411.5
2017-Oct-13 17:00N 37°19' E 024°51'611.4
2017-Oct-13 16:31N 37°20' E 024°58'611.5
2017-Oct-13 16:01N 37°24' E 025°03'7390.7
2017-Oct-13 16:00N 37°18' E 025°00'1224.6 360 / 271019.110.8 21.012.222.0
2017-Oct-13 15:31N 37°27' E 025°09'611.1
2017-Oct-13 15:01N 37°28' E 025°16'2 4.8
2017-Oct-13 14:30N 37°28' E 025°19'0 0.0
2017-Oct-13 14:00N 37°28' E 025°19'0 0.0
2017-Oct-13 13:27N 37°28' E 025°19'0 0.0
2017-Oct-13 13:00N 37°28' E 025°19'0 0.0
2017-Oct-13 12:30N 37°28' E 025°19'0 0.0
2017-Oct-13 11:48N 37°28' E 025°19'0 0.0
2017-Oct-13 11:30N 37°28' E 025°19'0 0.0
2017-Oct-13 11:00N 37°28' E 025°19'0 0.0
2017-Oct-13 10:30N 37°28' E 025°19'0 0.0
2017-Oct-13 10:00N 37°28' E 025°19'0 0.0
2017-Oct-13 09:30N 37°28' E 025°19'0 0.0
2017-Oct-13 09:00N 37°28' E 025°19'0 0.0
2017-Oct-13 08:30N 37°28' E 025°19'0 0.0
2017-Oct-13 08:00N 37°28' E 025°19'0 0.0
2017-Oct-13 07:30N 37°28' E 025°19'0 0.0
2017-Oct-13 07:00N 37°28' E 025°19'0 0.0
2017-Oct-13 06:30N 37°28' E 025°19'0 0.0
2017-Oct-13 05:57N 37°28' E 025°19'0 0.0
2017-Oct-13 05:30N 37°28' E 025°19'0 0.0
2017-Oct-13 05:00N 37°28' E 025°19'0 0.1
2017-Oct-13 04:30N 37°28' E 025°19'3 6.3
2017-Oct-13 04:00N 37°27' E 025°15'611.2
2017-Oct-13 03:30N 37°24' E 025°10'612.3
2017-Oct-13 03:00N 37°19' E 025°14'714.1
2017-Oct-13 02:30N 37°17' E 025°23'510.0
2017-Oct-13 02:00N 37°12' E 025°24'7208.8 010 / 231019.610.8 19.313.521.0
2017-Oct-13 01:57N 37°15' E 025°32'614.2
2017-Oct-13 01:31N 37°13' E 025°40'6611.9
2017-Oct-12 20:00N 36°36' E 026°48'5914.8 350 / 261019.010.8 20.513.622.0
2017-Oct-12 16:00N 36°24' E 028°00'25 1.7 290 / 131017.110.8 23.010.324.0
2017-Oct-12 01:00N 36°18' E 027°30'5012.4 330 / 171015.9 5.4 20.512.623.0
2017-Oct-11 21:00N 35°54' E 026°36'6613.1 330 / 281017.910.8 21.010.023.0
2017-Oct-11 16:00N 35°24' E 025°24'24 1.9 330 / 181020.110.8 21.012.224.0
2017-Oct-11 03:00N 35°24' E 024°54'3411.5 270 / 101019.810.8 20.012.024.0
2017-Oct-11 00:00N 35°42' E 024°18'4711.8 1020.610.8 20.211.123.0
2017-Oct-10 20:00N 36°00' E 023°24'8111.6 090 / 31021.010.8 20.5 9.324.0
2017-Oct-10 13:00N 36°24' E 021°48'   220 / 31020.210.8 21.510.624.0
2017-Oct-07 23:10N 37°27' E 023°43'213.2
2017-Oct-07 23:01N 37°29' E 023°43'713.5
2017-Oct-07 22:30N 37°35' E 023°43'713.5
2017-Oct-07 22:00N 37°42' E 023°41'713.8
2017-Oct-07 21:30N 37°48' E 023°37'612.4
2017-Oct-07 21:00N 37°55' E 023°37'  
Track history (hours):
 
Tides and Currents Weather Stations Pressure Air Temp Water Temp Dewpoint Dewpoint Depression Visibility Wind Speed Wind Dir Waves Ship Positions

Queen Victoria

Last reported at 2017-Oct-17 20:41 UTC. Time now 2017-Oct-18 09:18 UTC.
Position N 41°26' E 018°32'.

Length 294 m; draft 8 m.

Type: Passenger vessel. MMSI: 310624000.

Date/timePositionNaut miles runAvg speedWind from/ knotsBaromVisibWave heightAir tempDewpointWater temp
2017-Oct-17 20:41N 41°26' E 018°32'2 9.5
2017-Oct-17 20:30N 41°24' E 018°33'5 9.4
2017-Oct-17 19:56N 41°19' E 018°34'4 9.4
2017-Oct-17 19:30N 41°15' E 018°36'5 9.4
2017-Oct-17 19:00N 41°11' E 018°38'5 9.4
2017-Oct-17 18:30N 41°06' E 018°40'5 9.4
2017-Oct-17 18:00N 41°02' E 018°42'5 9.4
2017-Oct-17 17:30N 40°57' E 018°44'5 9.4
2017-Oct-17 17:00N 40°53' E 018°45'5 9.4
2017-Oct-17 16:30N 40°48' E 018°47'5 9.4
2017-Oct-17 16:00N 40°44' E 018°50'5 9.4
2017-Oct-17 15:30N 40°40' E 018°53'5 9.4
2017-Oct-17 14:59N 40°36' E 018°55'5 9.4
2017-Oct-17 14:30N 40°31' E 018°58'9 8.6
2017-Oct-17 13:30N 40°23' E 018°58'1121.3
2017-Oct-17 13:00N 40°12' E 019°00'15 6.9 360 / 131023.4 5.4 20.018.421.0
2017-Oct-17 10:46N 39°60' E 019°12'2 9.3
2017-Oct-17 10:30N 39°57' E 019°13'5 9.3
2017-Oct-17 10:00N 39°53' E 019°15'5 9.3
2017-Oct-17 09:30N 39°49' E 019°18'5 9.3
2017-Oct-17 09:00N 39°45' E 019°20'5 9.3
2017-Oct-17 08:30N 39°40' E 019°23'5 9.3
2017-Oct-17 08:00N 39°36' E 019°25'5 9.3
2017-Oct-17 07:30N 39°32' E 019°28'5 9.3
2017-Oct-17 07:00N 39°28' E 019°30'5 9.3
2017-Oct-17 06:30N 39°23' E 019°33'5 9.3
2017-Oct-17 06:00N 39°19' E 019°35'5 9.3
2017-Oct-17 05:30N 39°15' E 019°38'5 9.3
2017-Oct-17 05:00N 39°11' E 019°40'5 9.3
2017-Oct-17 04:30N 39°06' E 019°42'5 9.3
2017-Oct-17 04:00N 39°02' E 019°45'5 9.3
2017-Oct-17 03:30N 38°58' E 019°47'5 9.3
2017-Oct-17 03:00N 38°54' E 019°50'12 9.3
2017-Oct-17 01:40N 38°42' E 019°57'2 9.3
2017-Oct-17 01:30N 38°41' E 019°57'5 9.3
2017-Oct-17 01:00N 38°37' E 019°60'5 9.3
2017-Oct-17 00:30N 38°33' E 020°02'5 9.5
2017-Oct-17 00:01N 38°28' E 020°04'5 9.5
2017-Oct-16 23:30N 38°24' E 020°07'5 9.3
2017-Oct-16 23:00N 38°20' E 020°09'5 9.3
2017-Oct-16 22:30N 38°16' E 020°12'5 9.3
2017-Oct-16 22:00N 38°11' E 020°14'5 9.2
2017-Oct-16 21:30N 38°07' E 020°17'5 9.2
2017-Oct-16 21:00N 38°05' E 020°23'5 9.3
2017-Oct-16 20:31N 38°03' E 020°28'44 9.8
2017-Oct-16 16:00N 37°36' E 021°12'36 2.1 340 / 141024.110.8 23.018.323.0
2017-Oct-15 23:00N 37°00' E 021°18'102 5.7 020 / 111024.110.8 21.011.124.0
2017-Oct-15 05:00N 36°42' E 023°24'51 8.8 010 / 291024.310.8 20.013.023.0
2017-Oct-14 23:11N 37°31' E 023°43'1 8.6
2017-Oct-14 23:01N 37°32' E 023°43'4230.7
2017-Oct-14 23:00N 37°36' E 023°42'1 1.7 020 / 181023.310.8 20.012.024.0
2017-Oct-14 22:30N 37°37' E 023°43'4 8.6
2017-Oct-14 22:01N 37°41' E 023°42'4 8.6
2017-Oct-14 21:30N 37°45' E 023°39'4 8.5
2017-Oct-14 21:00N 37°48' E 023°37'4 8.1
2017-Oct-14 20:31N 37°52' E 023°34'4 8.4
2017-Oct-14 20:01N 37°56' E 023°37'1 1.4
2017-Oct-14 19:29N 37°56' E 023°37'0 0.0
2017-Oct-14 18:59N 37°56' E 023°37'0 0.0
2017-Oct-14 18:29N 37°56' E 023°37'0 0.0
2017-Oct-14 17:59N 37°56' E 023°37'0 0.0
2017-Oct-14 17:29N 37°56' E 023°37'0 0.0
2017-Oct-14 16:59N 37°56' E 023°37'0 0.0
2017-Oct-14 16:29N 37°56' E 023°37'0 0.0
2017-Oct-14 15:59N 37°56' E 023°37'0 0.0
2017-Oct-14 15:29N 37°56' E 023°37'0 0.0
2017-Oct-14 14:56N 37°56' E 023°37'0 0.0
2017-Oct-14 14:29N 37°56' E 023°37'0 0.0
2017-Oct-14 13:59N 37°56' E 023°37'0 0.0
2017-Oct-14 13:29N 37°56' E 023°37'0 0.0
2017-Oct-14 12:59N 37°56' E 023°37'0 0.0
2017-Oct-14 12:29N 37°56' E 023°37'0 0.0
2017-Oct-14 11:59N 37°56' E 023°37'0 0.0
2017-Oct-14 11:29N 37°56' E 023°37'0 0.0
2017-Oct-14 10:59N 37°56' E 023°37'0 0.0
2017-Oct-14 10:29N 37°56' E 023°37'0 0.0
2017-Oct-14 09:59N 37°56' E 023°37'0 0.0
2017-Oct-14 09:29N 37°56' E 023°37'0 0.0
2017-Oct-14 08:59N 37°56' E 023°37'0 0.0
2017-Oct-14 08:29N 37°56' E 023°37'0 0.0
2017-Oct-14 07:59N 37°56' E 023°37'0 0.0
2017-Oct-14 07:29N 37°56' E 023°37'0 0.0
2017-Oct-14 06:59N 37°56' E 023°37'0 0.0
2017-Oct-14 06:29N 37°56' E 023°37'0 0.0
2017-Oct-14 05:59N 37°56' E 023°37'0 0.0
2017-Oct-14 05:29N 37°56' E 023°37'0 0.0
2017-Oct-14 04:59N 37°56' E 023°37'0 0.0
2017-Oct-14 04:29N 37°56' E 023°37'0 0.0
2017-Oct-14 03:59N 37°56' E 023°37'0 0.0
2017-Oct-14 03:29N 37°56' E 023°37'0 0.0
2017-Oct-14 02:59N 37°56' E 023°37'0 0.0
2017-Oct-14 02:29N 37°56' E 023°37'0 0.0
2017-Oct-14 01:59N 37°56' E 023°37'0 0.7
2017-Oct-14 01:30N 37°56' E 023°37'3 6.0
2017-Oct-14 01:01N 37°53' E 023°38'611.6
2017-Oct-14 00:30N 37°48' E 023°41'611.4
2017-Oct-14 00:00N 37°43' E 023°44'611.5
2017-Oct-13 23:31N 37°37' E 023°45'611.7
2017-Oct-13 23:00N 37°31' E 023°45'611.6
2017-Oct-13 22:30N 37°25' E 023°46'48 9.3
2017-Oct-13 17:22N 37°18' E 024°46'411.5
2017-Oct-13 17:00N 37°19' E 024°51'611.4
2017-Oct-13 16:31N 37°20' E 024°58'611.5
2017-Oct-13 16:01N 37°24' E 025°03'7390.7
2017-Oct-13 16:00N 37°18' E 025°00'1224.6 360 / 271019.110.8 21.012.222.0
2017-Oct-13 15:31N 37°27' E 025°09'611.1
2017-Oct-13 15:01N 37°28' E 025°16'2 4.8
2017-Oct-13 14:30N 37°28' E 025°19'0 0.0
2017-Oct-13 14:00N 37°28' E 025°19'0 0.0
2017-Oct-13 13:27N 37°28' E 025°19'0 0.0
2017-Oct-13 13:00N 37°28' E 025°19'0 0.0
2017-Oct-13 12:30N 37°28' E 025°19'0 0.0
2017-Oct-13 11:48N 37°28' E 025°19'0 0.0
2017-Oct-13 11:30N 37°28' E 025°19'0 0.0
2017-Oct-13 11:00N 37°28' E 025°19'0 0.0
2017-Oct-13 10:30N 37°28' E 025°19'0 0.0
2017-Oct-13 10:00N 37°28' E 025°19'0 0.0
2017-Oct-13 09:30N 37°28' E 025°19'0 0.0
2017-Oct-13 09:00N 37°28' E 025°19'0 0.0
2017-Oct-13 08:30N 37°28' E 025°19'0 0.0
2017-Oct-13 08:00N 37°28' E 025°19'0 0.0
2017-Oct-13 07:30N 37°28' E 025°19'0 0.0
2017-Oct-13 07:00N 37°28' E 025°19'0 0.0
2017-Oct-13 06:30N 37°28' E 025°19'0 0.0
2017-Oct-13 05:57N 37°28' E 025°19'0 0.0
2017-Oct-13 05:30N 37°28' E 025°19'0 0.0
2017-Oct-13 05:00N 37°28' E 025°19'0 0.1
2017-Oct-13 04:30N 37°28' E 025°19'3 6.3
2017-Oct-13 04:00N 37°27' E 025°15'611.2
2017-Oct-13 03:30N 37°24' E 025°10'612.3
2017-Oct-13 03:00N 37°19' E 025°14'714.1
2017-Oct-13 02:30N 37°17' E 025°23'510.0
2017-Oct-13 02:00N 37°12' E 025°24'7208.8 010 / 231019.610.8 19.313.521.0
2017-Oct-13 01:57N 37°15' E 025°32'614.2
2017-Oct-13 01:31N 37°13' E 025°40'6611.9
2017-Oct-12 20:00N 36°36' E 026°48'5914.8 350 / 261019.010.8 20.513.622.0
2017-Oct-12 16:00N 36°24' E 028°00'25 1.7 290 / 131017.110.8 23.010.324.0
2017-Oct-12 01:00N 36°18' E 027°30'5012.4 330 / 171015.9 5.4 20.512.623.0
2017-Oct-11 21:00N 35°54' E 026°36'6613.1 330 / 281017.910.8 21.010.023.0
2017-Oct-11 16:00N 35°24' E 025°24'24 1.9 330 / 181020.110.8 21.012.224.0
2017-Oct-11 03:00N 35°24' E 024°54'3411.5 270 / 101019.810.8 20.012.024.0
2017-Oct-11 00:00N 35°42' E 024°18'4711.8 1020.610.8 20.211.123.0
2017-Oct-10 20:00N 36°00' E 023°24'8111.6 090 / 31021.010.8 20.5 9.324.0
2017-Oct-10 13:00N 36°24' E 021°48'   220 / 31020.210.8 21.510.624.0
2017-Oct-07 23:10N 37°27' E 023°43'213.2
2017-Oct-07 23:01N 37°29' E 023°43'713.5
2017-Oct-07 22:30N 37°35' E 023°43'713.5
2017-Oct-07 22:00N 37°42' E 023°41'713.8
2017-Oct-07 21:30N 37°48' E 023°37'612.4
2017-Oct-07 21:00N 37°55' E 023°37'  

Dump ship's entire track history